Aquilla, Texas
Current Conditions -  °F | °C
As of 3:51 PM on Monday 20 Oct 2014 (Local Time) from KACT Reporting Station
Clear Clear  
Wind Chill: 81°   Ceiling: Unl
Heat Index: 81°   Visibility: 10mi
Dew Point: 59°   Wind: 3mph
Humidity: 47%   Direction: NA
Pressure: 30.02"   Gusts: NA
Location:  31.85°N, 97.22°W
Report Text: KACT 202051Z VRB03KT 10SM CLR 27/15 A3002 RMK AO2 SLP158 T02720150 56021
Loading
Personal Weather Stations






























Interactive Weather Map New forecast layout! Learn more

10-Day Weather Forecast

Advertisements
Track Severe Weather on mobile